Time;durP1;ratioP1;P1;durP2;ratioP2;P2;SDS_P1;SDS_P2;PMS_P1;PMS_P2;Temp;Humidity;BMP_temperature;BMP_pressure;BME280_temperature;BME280_humidity;BME280_pressure;Samples;Min_cycle;Max_cycle;Signal;HPM_P1;HPM_P2
2023/10/25 08:24:18;;;;;;;3.20;0.90;;;9.90;99.90;;;;;;4943421;23;20271;-71
2023/10/25 08:26:45;;;;;;;15.03;1.93;;;9.80;99.90;;;;;;4918310;29;20640;-72
2023/10/25 08:29:12;;;;;;;3.97;1.37;;;9.70;99.90;;;;;;4919136;29;20640;-71
2023/10/25 08:31:40;;;;;;;2.87;1.73;;;9.70;99.90;;;;;;4895800;29;20222;-71
2023/10/25 08:34:08;;;;;;;1.47;1.00;;;9.70;99.90;;;;;;4885548;29;20697;-71
2023/10/25 08:36:36;;;;;;;2.17;0.80;;;9.70;99.90;;;;;;4885089;29;20203;-70
2023/10/25 08:39:04;;;;;;;5.87;0.90;;;9.80;99.90;;;;;;4900051;29;20221;-70
2023/10/25 08:41:34;;;;;;;2.03;0.60;;;9.90;99.90;;;;;;4899485;29;20230;-71
2023/10/25 08:44:01;;;;;;;1.23;0.70;;;9.80;99.90;;;;;;4900095;29;20242;-69
2023/10/25 08:46:29;;;;;;;1.20;0.80;;;9.80;99.90;;;;;;4899674;29;20202;-71
2023/10/25 08:48:56;;;;;;;2.90;1.20;;;9.80;99.90;;;;;;4899751;29;20206;-70
2023/10/25 08:51:24;;;;;;;1.33;0.87;;;9.80;99.90;;;;;;4899348;29;20282;-69
2023/10/25 08:53:53;;;;;;;1.47;0.90;;;9.80;99.90;;;;;;4899188;29;20214;-69
2023/10/25 08:56:20;;;;;;;1.57;0.83;;;9.80;99.90;;;;;;4899633;29;20218;-70
2023/10/25 08:58:48;;;;;;;1.90;0.97;;;9.90;99.90;;;;;;4899898;29;20913;-69
2023/10/25 09:01:15;;;;;;;1.17;0.80;;;9.90;99.90;;;;;;4898685;29;20305;-70
2023/10/25 09:03:43;;;;;;;1.40;1.00;;;9.90;99.90;;;;;;4899402;29;20629;-70
2023/10/25 09:06:12;;;;;;;0.90;0.80;;;10.00;99.90;;;;;;4899677;29;20213;-70
2023/10/25 09:08:40;;;;;;;2.37;1.17;;;10.00;99.90;;;;;;4899370;29;20246;-69
2023/10/25 09:11:08;;;;;;;1.53;1.03;;;9.90;99.90;;;;;;4899534;29;20709;-69
2023/10/25 09:13:37;;;;;;;1.60;0.97;;;10.00;99.90;;;;;;4899693;29;20245;-71
2023/10/25 09:16:06;;;;;;;1.47;0.90;;;10.00;99.90;;;;;;4899561;29;20642;-69
2023/10/25 09:18:34;;;;;;;1.70;1.00;;;10.10;99.90;;;;;;4898676;29;20640;-70
2023/10/25 09:21:02;;;;;;;2.37;1.10;;;10.00;99.90;;;;;;4899084;29;20289;-70
2023/10/25 09:23:29;;;;;;;2.00;1.30;;;10.00;99.90;;;;;;4899040;29;20852;-70
2023/10/25 09:25:56;;;;;;;2.57;1.00;;;10.10;99.90;;;;;;4899372;29;20221;-71
2023/10/25 09:28:28;;;;;;;1.60;1.17;;;10.10;99.90;;;;;;4898910;29;20741;-69
2023/10/25 09:30:56;;;;;;;2.27;1.23;;;10.20;99.90;;;;;;4898841;29;20761;-69
2023/10/25 09:33:24;;;;;;;2.67;1.20;;;10.20;99.90;;;;;;4898648;29;20658;-70
2023/10/25 09:35:51;;;;;;;1.77;1.20;;;10.30;99.90;;;;;;4899183;29;20305;-70
2023/10/25 09:38:19;;;;;;;1.97;1.17;;;10.40;99.90;;;;;;4899262;29;20253;-73
2023/10/25 09:40:46;;;;;;;2.17;1.13;;;10.60;99.90;;;;;;4898646;29;20686;-72
2023/10/25 09:43:18;;;;;;;1.60;1.10;;;10.50;99.90;;;;;;4898590;29;20285;-72
2023/10/25 09:45:50;;;;;;;2.67;1.10;;;10.50;99.90;;;;;;4892317;29;20211;-73
2023/10/25 09:48:19;;;;;;;4.20;1.50;;;10.50;99.90;;;;;;4897510;29;20210;-71
2023/10/25 09:50:58;;;;;;;2.60;1.33;;;10.50;99.90;;;;;;4897670;29;20230;-70
2023/10/25 09:53:28;;;;;;;4.27;1.63;;;10.50;99.90;;;;;;4897423;29;20228;-71
2023/10/25 09:56:02;;;;;;;3.70;1.60;;;10.50;99.90;;;;;;4897326;29;20254;-71
2023/10/25 09:58:34;;;;;;;1.67;1.43;;;10.50;99.90;;;;;;4897293;29;20680;-74
2023/10/25 10:01:03;;;;;;;1.43;1.27;;;10.50;99.90;;;;;;4897504;29;20242;-74
2023/10/25 10:03:42;;;;;;;1.67;1.10;;;10.60;99.90;;;;;;4897237;29;20213;-74
2023/10/25 10:06:22;;;;;;;2.50;1.40;;;10.60;99.90;;;;;;4897430;29;20214;-71
2023/10/25 10:08:57;;;;;;;1.57;1.20;;;10.60;99.90;;;;;;4897417;29;20598;-72
2023/10/25 10:11:32;;;;;;;1.93;1.13;;;10.80;99.90;;;;;;4897156;29;20749;-71
2023/10/25 10:14:31;;;;;;;2.10;1.30;;;11.10;99.90;;;;;;4896786;29;20629;-71
2023/10/25 10:16:59;;;;;;;1.63;1.20;;;11.10;99.90;;;;;;4896596;29;20610;-71
2023/10/25 10:19:26;;;;;;;3.53;1.23;;;11.00;99.90;;;;;;4896571;29;20206;-71
2023/10/25 10:22:13;;;;;;;1.50;1.40;;;11.00;99.90;;;;;;4896841;29;20301;-75
2023/10/25 10:24:41;;;;;;;1.90;1.27;;;10.90;99.90;;;;;;4896374;29;20225;-74
2023/10/25 10:27:08;;;;;;;2.03;1.53;;;11.00;99.90;;;;;;4897077;29;20630;-70
2023/10/25 10:29:43;;;;;;;1.70;1.37;;;11.10;99.90;;;;;;4896703;29;20297;-72
2023/10/25 10:32:10;;;;;;;2.80;1.10;;;11.10;99.90;;;;;;4896648;29;21033;-74
2023/10/25 10:34:40;;;;;;;2.10;1.40;;;11.20;99.90;;;;;;4896343;29;20207;-74
2023/10/25 10:37:08;;;;;;;3.80;1.40;;;11.30;99.90;;;;;;4893922;29;20778;-75
2023/10/25 10:39:37;;;;;;;1.63;1.13;;;11.30;99.90;;;;;;4893185;29;20221;-71
2023/10/25 10:42:05;;;;;;;1.40;1.20;;;11.20;99.90;;;;;;4897693;29;20214;-73
2023/10/25 10:44:35;;;;;;;3.13;1.43;;;11.30;99.90;;;;;;4897831;29;20342;-71
2023/10/25 10:47:05;;;;;;;1.60;1.30;;;11.40;99.90;;;;;;4897832;29;20246;-73
2023/10/25 10:49:36;;;;;;;2.30;1.50;;;11.50;99.90;;;;;;4897559;29;20265;-73
2023/10/25 10:52:05;;;;;;;2.20;1.23;;;11.50;99.90;;;;;;4897671;29;20217;-73
2023/10/25 10:54:33;;;;;;;1.77;1.23;;;11.40;99.90;;;;;;4897851;29;20211;-73
2023/10/25 10:57:02;;;;;;;3.50;1.23;;;11.50;99.90;;;;;;4897560;29;20234;-70
2023/10/25 10:59:29;;;;;;;2.43;1.30;;;11.50;99.90;;;;;;4897583;29;20261;-70
2023/10/25 11:01:56;;;;;;;2.77;2.17;;;11.60;99.90;;;;;;4898040;29;20717;-71
2023/10/25 11:04:24;;;;;;;1.90;1.17;;;11.70;99.90;;;;;;4898127;29;20622;-71
2023/10/25 11:06:51;;;;;;;1.70;1.10;;;11.70;99.90;;;;;;4897899;29;20207;-70
2023/10/25 11:09:18;;;;;;;2.93;1.30;;;11.70;99.90;;;;;;4897720;29;20301;-70
2023/10/25 11:11:45;;;;;;;1.53;1.20;;;11.80;99.90;;;;;;4898119;29;20301;-70
2023/10/25 11:14:14;;;;;;;2.03;1.20;;;11.80;99.90;;;;;;4897748;29;20214;-70
2023/10/25 11:16:41;;;;;;;2.20;1.30;;;11.70;99.90;;;;;;4897777;29;20289;-70
2023/10/25 11:19:09;;;;;;;2.30;1.10;;;11.70;99.90;;;;;;4898054;29;20238;-72
2023/10/25 11:21:36;;;;;;;1.70;0.80;;;11.80;99.90;;;;;;4897733;29;20662;-73
2023/10/25 11:24:06;;;;;;;1.40;1.03;;;11.70;99.90;;;;;;4897795;29;20301;-70
2023/10/25 11:26:41;;;;;;;4.00;1.10;;;11.90;99.90;;;;;;4897814;29;20211;-71
2023/10/25 11:29:08;;;;;;;1.70;0.97;;;12.10;99.90;;;;;;4897883;29;20213;-70
2023/10/25 11:31:37;;;;;;;1.10;0.97;;;12.30;99.90;;;;;;4897697;29;20713;-72
2023/10/25 11:34:04;;;;;;;1.07;0.73;;;12.30;99.90;;;;;;4897777;29;20246;-73
2023/10/25 11:36:32;;;;;;;1.60;1.00;;;12.30;99.90;;;;;;4897786;29;20253;-70
2023/10/25 11:39:06;;;;;;;2.00;1.10;;;12.40;99.90;;;;;;4897692;29;20218;-70
2023/10/25 11:41:33;;;;;;;3.00;1.50;;;12.50;99.90;;;;;;4897274;29;20337;-71
2023/10/25 11:44:01;;;;;;;3.00;1.13;;;12.50;99.90;;;;;;4897794;29;20210;-70
2023/10/25 11:46:39;;;;;;;1.27;0.80;;;12.70;99.90;;;;;;4898698;29;20260;-70
2023/10/25 11:49:07;;;;;;;1.93;1.00;;;12.80;99.90;;;;;;4901567;29;20214;-70
2023/10/25 11:51:36;;;;;;;2.70;1.10;;;12.80;99.90;;;;;;4901445;29;20658;-70
2023/10/25 11:54:04;;;;;;;1.20;0.83;;;12.80;99.90;;;;;;4901534;29;20210;-70
2023/10/25 11:56:31;;;;;;;1.40;1.00;;;12.90;99.90;;;;;;4901832;29;20221;-71
2023/10/25 11:58:58;;;;;;;1.53;0.80;;;12.90;99.90;;;;;;4899048;29;20237;-71
2023/10/25 12:01:25;;;;;;;1.17;0.90;;;13.00;99.90;;;;;;4901991;29;20328;-74
2023/10/25 12:03:53;;;;;;;1.53;0.97;;;13.10;99.90;;;;;;4900234;29;20202;-74
2023/10/25 12:06:20;;;;;;;1.30;1.03;;;13.30;99.90;;;;;;4900553;29;20290;-68
2023/10/25 12:08:47;;;;;;;1.47;0.90;;;13.50;99.90;;;;;;4900340;29;20622;-74
2023/10/25 12:11:14;;;;;;;1.37;0.70;;;13.40;99.90;;;;;;4900786;29;20273;-73
2023/10/25 12:13:42;;;;;;;2.70;0.80;;;13.10;99.90;;;;;;4900473;29;20242;-73
2023/10/25 12:16:10;;;;;;;3.13;1.00;;;13.10;99.90;;;;;;4900517;29;20249;-72
2023/10/25 12:18:38;;;;;;;1.33;0.80;;;13.10;99.90;;;;;;4900403;29;20246;-72
2023/10/25 12:21:08;;;;;;;1.30;0.90;;;13.30;99.90;;;;;;4900660;29;20390;-73
2023/10/25 12:23:35;;;;;;;1.43;0.93;;;13.50;99.90;;;;;;4900495;29;20207;-75
2023/10/25 12:26:03;;;;;;;1.30;0.90;;;13.70;99.90;;;;;;4900542;29;20221;-72
2023/10/25 12:28:30;;;;;;;1.43;1.20;;;13.80;99.90;;;;;;4899396;29;20565;-71
2023/10/25 12:30:56;;;;;;;2.03;1.13;;;13.80;99.90;;;;;;4900626;29;20320;-71
2023/10/25 12:33:23;;;;;;;1.47;1.07;;;13.90;99.90;;;;;;4899955;29;20639;-72
2023/10/25 12:35:50;;;;;;;1.67;0.90;;;14.10;99.90;;;;;;4900302;29;20257;-72
2023/10/25 12:38:18;;;;;;;1.40;1.00;;;14.00;99.90;;;;;;4900185;29;20748;-71
2023/10/25 12:40:45;;;;;;;1.17;1.07;;;14.10;99.90;;;;;;4899892;29;20333;-71
2023/10/25 12:43:12;;;;;;;1.53;0.80;;;14.10;99.90;;;;;;4900105;29;20238;-71
2023/10/25 12:45:39;;;;;;;3.20;1.17;;;14.20;99.90;;;;;;4900431;29;20238;-71
2023/10/25 12:48:06;;;;;;;0.90;0.80;;;14.30;99.90;;;;;;4900454;29;20206;-71
2023/10/25 12:50:33;;;;;;;1.63;1.10;;;14.40;99.90;;;;;;4900094;29;20634;-71
2023/10/25 12:53:01;;;;;;;1.97;1.30;;;14.50;99.90;;;;;;4899999;29;20245;-71
2023/10/25 12:55:29;;;;;;;1.77;1.00;;;14.70;99.90;;;;;;4899690;29;20210;-71
2023/10/25 12:57:56;;;;;;;1.47;1.00;;;14.80;99.90;;;;;;4899310;29;20648;-71
2023/10/25 13:00:23;;;;;;;1.10;0.87;;;14.80;99.90;;;;;;4899931;29;20320;-71
2023/10/25 13:02:50;;;;;;;1.03;0.93;;;14.90;99.90;;;;;;4900168;29;20306;-71
2023/10/25 13:05:17;;;;;;;1.13;0.93;;;14.80;99.90;;;;;;4899805;29;20290;-71
2023/10/25 13:07:44;;;;;;;1.57;1.00;;;14.90;99.90;;;;;;4899859;29;20293;-71
2023/10/25 13:10:11;;;;;;;1.63;1.10;;;14.90;99.90;;;;;;4899582;29;20808;-73
2023/10/25 13:12:39;;;;;;;1.60;1.17;;;15.00;99.90;;;;;;4900010;29;20214;-72
2023/10/25 13:15:07;;;;;;;2.47;1.13;;;15.00;99.90;;;;;;4899736;29;20249;-72
2023/10/25 13:17:34;;;;;;;2.50;1.40;;;14.90;99.90;;;;;;4899681;29;20266;-73
2023/10/25 13:20:02;;;;;;;2.93;1.90;;;14.90;99.90;;;;;;4899630;29;20272;-73
2023/10/25 13:22:30;;;;;;;5.67;3.37;;;14.70;99.90;;;;;;4899440;29;20242;-72
2023/10/25 13:24:57;;;;;;;2.30;1.70;;;14.60;99.90;;;;;;4898956;29;20271;-71
2023/10/25 13:27:24;;;;;;;4.00;2.27;;;14.50;99.90;;;;;;4899598;29;20638;-72
2023/10/25 13:29:52;;;;;;;3.57;2.40;;;14.40;99.90;;;;;;4899400;29;20270;-72
2023/10/25 13:32:19;;;;;;;2.60;1.63;;;14.20;99.90;;;;;;4899377;29;20254;-72
2023/10/25 13:34:46;;;;;;;4.00;1.67;;;14.00;99.90;;;;;;4898919;29;20733;-72
2023/10/25 13:37:13;;;;;;;1.53;1.23;;;13.90;99.90;;;;;;4898842;29;20749;-72
2023/10/25 13:39:40;;;;;;;2.00;1.23;;;13.80;99.90;;;;;;4899111;29;20266;-72
2023/10/25 13:42:07;;;;;;;4.10;1.77;;;13.60;99.90;;;;;;4898968;29;20238;-73
2023/10/25 13:44:34;;;;;;;1.80;1.57;;;13.70;99.90;;;;;;4899156;29;20206;-71
2023/10/25 13:47:03;;;;;;;3.43;1.50;;;13.70;99.90;;;;;;4898868;29;20252;-72
2023/10/25 13:49:29;;;;;;;2.37;1.20;;;13.80;99.90;;;;;;4898620;29;20309;-72
2023/10/25 13:51:56;;;;;;;3.27;1.90;;;13.70;99.90;;;;;;4898616;29;20242;-71
2023/10/25 13:54:23;;;;;;;3.53;1.73;;;13.70;99.90;;;;;;4898978;29;20245;-71
2023/10/25 13:56:50;;;;;;;3.17;2.00;;;13.40;99.90;;;;;;4898618;29;20270;-71
2023/10/25 13:59:17;;;;;;;1.87;1.10;;;13.40;99.90;;;;;;4898753;29;20249;-71
2023/10/25 14:01:44;;;;;;;2.70;1.83;;;13.30;99.90;;;;;;4898754;29;20329;-72
2023/10/25 14:04:12;;;;;;;2.33;1.30;;;13.20;99.90;;;;;;4898714;29;20249;-72
2023/10/25 14:06:39;;;;;;;2.90;1.67;;;13.20;99.90;;;;;;4898998;29;20261;-72
2023/10/25 14:09:06;;;;;;;2.10;1.63;;;13.20;99.90;;;;;;4898291;29;20297;-71
2023/10/25 14:11:33;;;;;;;3.70;2.00;;;13.20;99.90;;;;;;4898116;29;20269;-72
2023/10/25 14:14:00;;;;;;;2.63;1.73;;;13.20;99.90;;;;;;4898617;29;20252;-72
2023/10/25 14:16:27;;;;;;;2.67;1.60;;;13.30;99.90;;;;;;4898461;29;20306;-72
2023/10/25 14:18:54;;;;;;;2.80;1.83;;;13.30;99.90;;;;;;4898431;29;20721;-72
2023/10/25 14:21:23;;;;;;;2.00;1.50;;;13.30;99.90;;;;;;4899169;29;20250;-71
2023/10/25 14:23:52;;;;;;;2.43;1.70;;;13.40;99.90;;;;;;4898345;29;20674;-72
2023/10/25 14:26:19;;;;;;;2.60;1.47;;;13.40;99.90;;;;;;4898670;29;20578;-70
2023/10/25 14:28:46;;;;;;;3.53;2.00;;;13.30;99.90;;;;;;4898173;29;20249;-70
2023/10/25 14:31:14;;;;;;;6.77;2.40;;;13.40;99.90;;;;;;4898105;29;20240;-70
2023/10/25 14:33:41;;;;;;;2.10;1.43;;;13.30;99.90;;;;;;4897990;29;20242;-71
2023/10/25 14:36:12;;;;;;;5.17;2.73;;;13.20;99.90;;;;;;4898132;29;20760;-71
2023/10/25 14:38:41;;;;;;;3.17;2.10;;;13.20;99.90;;;;;;4897974;29;20249;-70
2023/10/25 14:41:08;;;;;;;2.30;1.57;;;13.20;99.90;;;;;;4897837;29;20612;-71
2023/10/25 14:43:36;;;;;;;1.97;1.40;;;13.30;99.90;;;;;;4897855;29;20210;-70
2023/10/25 14:46:03;;;;;;;2.53;2.17;;;13.30;99.90;;;;;;4897797;29;20690;-70
2023/10/25 14:48:30;;;;;;;1.90;1.60;;;13.30;99.90;;;;;;4898239;29;20238;-70
2023/10/25 14:50:57;;;;;;;1.53;1.40;;;13.20;99.90;;;;;;4898000;29;20276;-71
2023/10/25 14:53:24;;;;;;;2.73;1.50;;;13.20;99.90;;;;;;4898071;29;20220;-70
2023/10/25 14:55:52;;;;;;;2.23;1.80;;;13.20;99.90;;;;;;4898178;29;20248;-70
2023/10/25 14:58:19;;;;;;;4.30;1.63;;;13.20;99.90;;;;;;4897860;29;20214;-71
2023/10/25 15:00:46;;;;;;;1.77;1.37;;;13.20;99.90;;;;;;4897826;29;20269;-70
2023/10/25 15:03:13;;;;;;;2.10;1.90;;;13.20;99.90;;;;;;4897856;29;20293;-71
2023/10/25 15:05:41;;;;;;;1.87;1.40;;;13.20;99.90;;;;;;4897982;29;20246;-73
2023/10/25 15:08:08;;;;;;;2.17;1.57;;;13.30;99.90;;;;;;4897758;29;20212;-71
2023/10/25 15:10:35;;;;;;;1.43;1.20;;;13.30;99.90;;;;;;4897372;29;20257;-71
2023/10/25 15:13:04;;;;;;;3.97;1.53;;;13.20;99.90;;;;;;4898209;29;20246;-71
2023/10/25 15:15:31;;;;;;;2.17;1.17;;;13.20;99.90;;;;;;4897912;29;20246;-71
2023/10/25 15:17:57;;;;;;;2.27;1.23;;;13.20;99.90;;;;;;4897792;29;20250;-71
2023/10/25 15:20:24;;;;;;;2.20;1.30;;;13.10;99.90;;;;;;4897650;29;20288;-71
2023/10/25 15:22:51;;;;;;;1.77;1.40;;;13.00;99.90;;;;;;4900921;29;20812;-71
2023/10/25 15:25:22;;;;;;;2.50;1.90;;;13.00;99.90;;;;;;4901395;29;20253;-71
2023/10/25 15:27:49;;;;;;;2.10;1.50;;;13.10;99.90;;;;;;4901468;29;20892;-70
2023/10/25 15:30:18;;;;;;;3.03;1.90;;;13.00;99.90;;;;;;4901647;29;20258;-71
2023/10/25 15:32:45;;;;;;;2.97;2.20;;;13.10;99.90;;;;;;4901458;29;20233;-70
2023/10/25 15:35:12;;;;;;;4.50;2.67;;;13.00;99.90;;;;;;4901446;29;20210;-71
2023/10/25 15:37:39;;;;;;;9.43;4.13;;;12.90;99.90;;;;;;4901265;29;20305;-71
2023/10/25 15:40:07;;;;;;;4.70;3.20;;;13.00;99.90;;;;;;4901207;29;20306;-71
2023/10/25 15:42:36;;;;;;;2.53;2.10;;;13.00;99.90;;;;;;4901255;29;20242;-70
2023/10/25 15:45:04;;;;;;;3.60;2.50;;;13.00;99.90;;;;;;4901308;29;20273;-71
2023/10/25 15:47:32;;;;;;;3.73;2.47;;;13.00;99.90;;;;;;4901600;29;20257;-72
2023/10/25 15:49:59;;;;;;;6.90;3.80;;;12.80;99.90;;;;;;4900959;29;20322;-71
2023/10/25 15:52:26;;;;;;;6.07;3.60;;;12.90;99.90;;;;;;4901188;29;20297;-71
2023/10/25 15:54:53;;;;;;;4.77;3.27;;;12.90;99.90;;;;;;4901108;29;20206;-71
2023/10/25 15:57:20;;;;;;;4.57;3.20;;;13.00;99.90;;;;;;4901205;29;20728;-70
2023/10/25 15:59:48;;;;;;;5.30;3.17;;;13.10;99.90;;;;;;4900433;29;20661;-70
2023/10/25 16:02:15;;;;;;;3.87;2.63;;;13.00;99.90;;;;;;4896336;29;20328;-70
2023/10/25 16:04:43;;;;;;;3.53;2.47;;;12.90;99.90;;;;;;4902969;29;20290;-68
2023/10/25 16:07:10;;;;;;;4.27;2.73;;;12.80;99.90;;;;;;4900519;29;20293;-69
2023/10/25 16:09:37;;;;;;;5.23;2.60;;;12.80;99.90;;;;;;4900266;29;20241;-74
2023/10/25 16:12:05;;;;;;;5.93;3.40;;;12.70;99.90;;;;;;4900228;29;20245;-72
2023/10/25 16:14:32;;;;;;;4.87;3.10;;;12.70;99.90;;;;;;4900618;29;20246;-71
2023/10/25 16:16:59;;;;;;;5.60;3.17;;;12.70;99.90;;;;;;4900271;29;20289;-69
2023/10/25 16:19:26;;;;;;;3.27;2.27;;;12.70;99.90;;;;;;4899271;29;20230;-72
2023/10/25 16:21:54;;;;;;;4.40;2.23;;;12.70;99.90;;;;;;4894033;29;20334;-69
2023/10/25 16:24:21;;;;;;;3.27;2.50;;;12.60;99.90;;;;;;4899851;29;20640;-71
2023/10/25 16:26:48;;;;;;;4.37;2.60;;;12.60;99.90;;;;;;4899615;29;20636;-71
2023/10/25 16:29:15;;;;;;;5.40;3.63;;;12.60;99.90;;;;;;4897596;29;20241;-71
2023/10/25 16:31:42;;;;;;;6.17;3.13;;;12.60;99.90;;;;;;4899241;29;20230;-73
2023/10/25 16:34:14;;;;;;;2.90;2.23;;;12.50;99.90;;;;;;4896758;29;20249;-70
2023/10/25 16:36:42;;;;;;;2.57;1.73;;;12.60;99.90;;;;;;4899153;29;20210;-70
2023/10/25 16:39:10;;;;;;;2.50;1.70;;;12.60;99.90;;;;;;4898400;29;20214;-71
2023/10/25 16:41:37;;;;;;;3.40;2.10;;;12.50;99.90;;;;;;4898324;29;20333;-69
2023/10/25 16:44:04;;;;;;;3.20;2.00;;;12.40;99.90;;;;;;4899104;29;20271;-70
2023/10/25 16:46:31;;;;;;;2.20;1.50;;;12.40;99.90;;;;;;4898832;29;20245;-71
2023/10/25 16:48:58;;;;;;;2.00;1.40;;;12.30;99.90;;;;;;4899253;29;20249;-71
2023/10/25 16:51:25;;;;;;;2.03;1.83;;;12.40;99.90;;;;;;4899192;29;20281;-72
2023/10/25 16:53:52;;;;;;;1.90;1.50;;;12.40;99.90;;;;;;4896949;29;20495;-71
2023/10/25 16:56:21;;;;;;;1.87;1.30;;;12.30;99.90;;;;;;4898618;29;20642;-72
2023/10/25 16:58:48;;;;;;;2.63;1.80;;;12.30;99.90;;;;;;4896331;29;20213;-71
2023/10/25 17:01:16;;;;;;;2.73;1.50;;;12.30;99.90;;;;;;4898272;29;20266;-71
2023/10/25 17:03:43;;;;;;;2.87;1.80;;;12.40;99.90;;;;;;4897786;29;20321;-71
2023/10/25 17:06:12;;;;;;;2.73;1.40;;;12.30;99.90;;;;;;4898761;29;20206;-71
2023/10/25 17:08:39;;;;;;;2.10;1.43;;;12.40;99.90;;;;;;4898366;29;20242;-71
2023/10/25 17:11:07;;;;;;;3.47;1.90;;;12.30;99.90;;;;;;4898082;29;20739;-71
2023/10/25 17:13:37;;;;;;;3.57;2.20;;;12.30;99.90;;;;;;4897710;29;20305;-71
2023/10/25 17:16:05;;;;;;;2.70;1.80;;;12.20;99.90;;;;;;4898017;29;20210;-71
2023/10/25 17:18:32;;;;;;;2.03;1.43;;;12.20;99.90;;;;;;4898049;29;20702;-71
2023/10/25 17:21:03;;;;;;;2.53;1.60;;;12.10;99.90;;;;;;4891147;29;20773;-72
2023/10/25 17:23:30;;;;;;;2.67;1.80;;;12.10;99.90;;;;;;4886943;29;20239;-71
2023/10/25 17:25:57;;;;;;;3.10;1.80;;;12.10;99.90;;;;;;4895546;29;20262;-70
2023/10/25 17:28:24;;;;;;;4.07;1.97;;;12.10;99.90;;;;;;4897557;29;20250;-70
2023/10/25 17:30:55;;;;;;;4.40;1.90;;;12.10;99.90;;;;;;4891338;29;20286;-70
2023/10/25 17:33:22;;;;;;;4.50;2.87;;;12.10;99.90;;;;;;4898923;29;20222;-71
2023/10/25 17:35:49;;;;;;;5.10;2.87;;;12.10;99.90;;;;;;4898928;29;20238;-70
2023/10/25 17:38:17;;;;;;;3.43;2.27;;;12.10;99.90;;;;;;4898418;29;20224;-71
2023/10/25 17:40:49;;;;;;;3.80;2.30;;;12.10;99.90;;;;;;4898198;29;20626;-71
2023/10/25 17:43:16;;;;;;;3.87;2.17;;;12.10;99.90;;;;;;4898299;29;20742;-71
2023/10/25 17:45:43;;;;;;;3.77;2.30;;;12.10;99.90;;;;;;4898400;29;20230;-71
2023/10/25 17:48:11;;;;;;;3.60;2.57;;;12.10;99.90;;;;;;4898859;29;20293;-71
2023/10/25 17:50:38;;;;;;;3.33;2.17;;;12.00;99.90;;;;;;4896354;29;20261;-70
2023/10/25 17:53:05;;;;;;;6.70;3.40;;;11.90;99.90;;;;;;4894799;29;20222;-71
2023/10/25 17:55:32;;;;;;;6.23;3.20;;;11.90;99.90;;;;;;4887323;29;20684;-71
2023/10/25 17:58:00;;;;;;;4.97;2.97;;;12.00;99.90;;;;;;4896879;29;20238;-71
2023/10/25 18:00:27;;;;;;;4.00;2.53;;;12.00;99.90;;;;;;4898244;29;20230;-71
2023/10/25 18:02:54;;;;;;;3.63;2.33;;;12.00;99.90;;;;;;4897519;29;20815;-72
2023/10/25 18:05:22;;;;;;;4.67;2.90;;;11.90;99.90;;;;;;4898167;29;20238;-71
2023/10/25 18:07:49;;;;;;;4.17;2.57;;;11.90;99.90;;;;;;4897689;29;20706;-72
2023/10/25 18:10:16;;;;;;;3.67;2.43;;;12.00;99.90;;;;;;4897409;29;20273;-71
2023/10/25 18:12:43;;;;;;;3.40;2.40;;;12.00;99.90;;;;;;4897362;29;20245;-71
2023/10/25 18:15:10;;;;;;;4.53;2.60;;;12.00;99.90;;;;;;4897498;29;20646;-72
2023/10/25 18:17:37;;;;;;;4.43;3.07;;;12.10;99.90;;;;;;4885335;29;20246;-71
2023/10/25 18:20:05;;;;;;;3.77;2.73;;;12.10;99.90;;;;;;4897611;29;20677;-71
2023/10/25 18:22:33;;;;;;;5.13;3.00;;;12.00;99.90;;;;;;4888341;29;20235;-72
2023/10/25 18:25:00;;;;;;;4.87;2.67;;;12.00;99.90;;;;;;4892893;29;20309;-72
2023/10/25 18:27:27;;;;;;;4.90;2.80;;;12.00;99.90;;;;;;4890348;29;20254;-71
2023/10/25 18:29:54;;;;;;;5.50;4.00;;;12.00;99.90;;;;;;4880709;29;20774;-71
2023/10/25 18:32:21;;;;;;;5.63;3.00;;;12.10;99.90;;;;;;4891969;29;20208;-71
2023/10/25 18:34:48;;;;;;;4.17;2.87;;;12.10;99.90;;;;;;4891959;29;20218;-72
2023/10/25 18:37:15;;;;;;;5.07;3.03;;;12.10;99.90;;;;;;4896542;29;20206;-71
2023/10/25 18:39:43;;;;;;;5.43;3.73;;;12.20;99.90;;;;;;4896541;29;20724;-71
2023/10/25 18:42:10;;;;;;;5.57;3.00;;;12.10;99.90;;;;;;4896559;29;20241;-71
2023/10/25 18:44:39;;;;;;;5.40;3.47;;;12.00;99.90;;;;;;4896973;29;20210;-71
2023/10/25 18:47:06;;;;;;;5.07;3.60;;;12.10;99.90;;;;;;4896289;29;20216;-71
2023/10/25 18:49:33;;;;;;;4.30;3.27;;;12.10;99.90;;;;;;4896896;29;20296;-71
2023/10/25 18:52:02;;;;;;;6.27;3.53;;;12.20;99.90;;;;;;4895423;29;20236;-72
2023/10/25 18:54:29;;;;;;;6.57;3.80;;;12.20;99.90;;;;;;4885754;29;20214;-72
2023/10/25 18:56:57;;;;;;;6.53;4.07;;;12.20;99.90;;;;;;4896334;29;20210;-72
2023/10/25 18:59:24;;;;;;;6.70;3.77;;;12.10;99.90;;;;;;4896228;29;20271;-71
2023/10/25 19:01:51;;;;;;;8.30;4.43;;;12.10;99.90;;;;;;4896482;29;20249;-72
2023/10/25 19:04:18;;;;;;;5.60;4.07;;;12.20;99.90;;;;;;4896977;29;20692;-71
2023/10/25 19:06:46;;;;;;;6.30;3.97;;;12.20;99.90;;;;;;4897173;29;20245;-71
2023/10/25 19:09:13;;;;;;;7.47;4.30;;;12.20;99.90;;;;;;4896275;29;20225;-71
2023/10/25 19:11:40;;;;;;;8.17;3.93;;;12.20;99.90;;;;;;4896970;29;20313;-71
2023/10/25 19:14:09;;;;;;;6.93;4.30;;;12.20;99.90;;;;;;4896179;29;20297;-71
2023/10/25 19:16:36;;;;;;;8.57;4.20;;;12.20;99.90;;;;;;4896709;29;20297;-71
2023/10/25 19:19:03;;;;;;;7.43;4.60;;;12.20;99.90;;;;;;4896579;29;20216;-71
2023/10/25 19:21:30;;;;;;;8.43;4.20;;;12.20;99.90;;;;;;4897285;29;20316;-71
2023/10/25 19:23:58;;;;;;;7.47;4.57;;;12.30;99.90;;;;;;4896151;29;20234;-71
2023/10/25 19:26:26;;;;;;;7.60;4.53;;;12.20;99.90;;;;;;4896794;29;20253;-70
2023/10/25 19:28:53;;;;;;;6.57;4.30;;;12.10;99.90;;;;;;4892022;29;20207;-70
2023/10/25 19:31:21;;;;;;;8.07;3.93;;;12.20;99.90;;;;;;4889227;29;20226;-71
2023/10/25 19:33:49;;;;;;;7.60;4.43;;;12.10;99.90;;;;;;4896735;29;20285;-70
2023/10/25 19:36:16;;;;;;;6.97;4.33;;;12.10;99.90;;;;;;4895884;29;20289;-71
2023/10/25 19:38:43;;;;;;;8.87;4.80;;;12.10;99.90;;;;;;4896513;29;20214;-71
2023/10/25 19:41:10;;;;;;;7.53;4.50;;;12.20;99.90;;;;;;4896435;29;20660;-71
2023/10/25 19:43:38;;;;;;;6.60;4.20;;;12.20;99.90;;;;;;4896442;29;20234;-71
2023/10/25 19:46:05;;;;;;;7.27;3.93;;;12.20;99.90;;;;;;4896545;29;20211;-71
2023/10/25 19:48:33;;;;;;;8.13;4.90;;;12.10;99.90;;;;;;4884870;29;20241;-71
2023/10/25 19:51:00;;;;;;;7.63;4.40;;;12.10;99.90;;;;;;4895329;29;20262;-71
2023/10/25 19:53:28;;;;;;;9.20;4.80;;;12.10;99.90;;;;;;4896025;29;20254;-71
2023/10/25 19:55:55;;;;;;;7.10;4.50;;;12.10;99.90;;;;;;4893387;29;20206;-70
2023/10/25 19:58:24;;;;;;;7.53;4.47;;;12.00;99.90;;;;;;4895636;29;20210;-71
2023/10/25 20:00:51;;;;;;;6.93;4.90;;;12.00;99.90;;;;;;4895508;29;20317;-71
2023/10/25 20:03:17;;;;;;;8.10;5.03;;;12.00;99.90;;;;;;4895706;29;20242;-71
2023/10/25 20:05:46;;;;;;;6.77;4.17;;;12.00;99.90;;;;;;4891122;29;20301;-71
2023/10/25 20:08:14;;;;;;;7.73;4.57;;;11.90;99.90;;;;;;4897375;29;20261;-71
2023/10/25 20:10:41;;;;;;;8.37;4.70;;;11.90;99.90;;;;;;4899290;29;20226;-72
2023/10/25 20:13:08;;;;;;;8.33;4.50;;;12.00;99.90;;;;;;4899112;29;20578;-72
2023/10/25 20:15:36;;;;;;;7.53;4.87;;;11.90;99.90;;;;;;4898714;29;20306;-72
2023/10/25 20:18:03;;;;;;;8.37;5.20;;;11.90;99.90;;;;;;4898834;29;20211;-72
2023/10/25 20:20:30;;;;;;;7.00;4.17;;;11.90;99.90;;;;;;4898513;29;20230;-71
2023/10/25 20:22:59;;;;;;;8.07;4.80;;;11.90;99.90;;;;;;4898455;29;20706;-71
2023/10/25 20:25:26;;;;;;;7.23;4.33;;;11.90;99.90;;;;;;4897827;29;20219;-72
2023/10/25 20:27:54;;;;;;;8.20;5.70;;;12.10;99.90;;;;;;4898945;29;20207;-71
2023/10/25 20:30:21;;;;;;;8.60;5.23;;;12.00;99.90;;;;;;4887231;29;20236;-71
2023/10/25 20:32:48;;;;;;;8.73;4.77;;;12.10;99.90;;;;;;4898768;29;20202;-71
2023/10/25 20:35:15;;;;;;;6.63;4.83;;;12.10;99.90;;;;;;4898867;29;20569;-71
2023/10/25 20:37:42;;;;;;;6.60;4.53;;;12.10;99.90;;;;;;4900048;29;20210;-71
2023/10/25 20:40:11;;;;;;;7.17;4.20;;;12.20;99.90;;;;;;4899080;29;20325;-71
2023/10/25 20:42:38;;;;;;;9.20;5.10;;;12.10;99.90;;;;;;4899157;29;20662;-71
2023/10/25 20:45:06;;;;;;;8.07;4.47;;;12.10;99.90;;;;;;4899350;29;20210;-71
2023/10/25 20:47:32;;;;;;;7.80;4.43;;;12.00;99.90;;;;;;4899436;29;20761;-71
2023/10/25 20:49:59;;;;;;;6.97;4.07;;;11.90;99.90;;;;;;4898883;29;20232;-71
2023/10/25 20:52:26;;;;;;;6.50;4.30;;;11.90;99.90;;;;;;4898945;29;20211;-71
2023/10/25 20:54:53;;;;;;;6.77;4.40;;;11.80;99.90;;;;;;4895367;29;20320;-72
